Time;durP1;ratioP1;P1;durP2;ratioP2;P2;SDS_P1;SDS_P2;PMS_P1;PMS_P2;Temp;Humidity;BMP_temperature;BMP_pressure;BME280_temperature;BME280_humidity;BME280_pressure;Samples;Min_cycle;Max_cycle;Signal;HPM_P1;HPM_P2
2022/01/24 00:01:17;;;;;;;15.05;8.65;;;;;;;-5.11;71.36;96065.50;5107985;28;20030;-78
2022/01/24 00:03:42;;;;;;;17.20;8.35;;;;;;;-5.06;71.44;96070.53;5089820;28;20097;-76
2022/01/24 00:06:11;;;;;;;13.43;7.70;;;;;;;-4.99;71.26;96077.19;5106769;28;20012;-77
2022/01/24 00:08:36;;;;;;;15.93;7.63;;;;;;;-4.97;71.29;96071.00;5089926;28;20092;-76
2022/01/24 00:11:07;;;;;;;15.13;8.77;;;;;;;-5.01;71.30;96073.78;5089824;28;20023;-77
2022/01/24 00:16:18;;;;;;;17.52;9.38;;;;;;;-4.89;71.12;96080.25;5090267;28;20031;-76
2022/01/24 00:26:50;;;;;;;15.65;8.35;;;;;;;-4.82;70.83;96081.69;5106151;28;20035;-75
2022/01/24 00:29:16;;;;;;;22.17;9.90;;;;;;;-4.87;71.25;96086.28;5106573;28;20019;-76
2022/01/24 00:31:42;;;;;;;18.33;9.60;;;;;;;-4.84;71.33;96084.38;5089032;28;20031;-78
2022/01/24 00:34:07;;;;;;;19.05;8.95;;;;;;;-4.86;71.26;96083.59;5089308;28;20034;-75
2022/01/24 00:36:33;;;;;;;15.13;8.43;;;;;;;-4.84;71.60;96084.38;5107184;28;20065;-76
2022/01/24 00:38:59;;;;;;;15.75;9.55;;;;;;;-4.93;71.73;96079.53;5106985;28;20028;-76
2022/01/24 00:41:24;;;;;;;14.55;8.30;;;;;;;-4.86;71.53;96086.22;5107740;28;20228;-77
2022/01/24 00:46:49;;;;;;;15.27;8.23;;;;;;;-4.77;71.32;96094.59;5083113;28;20073;-77
2022/01/24 00:54:43;;;;;;;14.88;8.30;;;;;;;-4.78;71.51;96098.13;5106041;28;20087;-77
2022/01/24 00:57:08;;;;;;;13.35;7.30;;;;;;;-4.67;70.36;96101.13;5105767;28;20015;-76
2022/01/24 00:59:34;;;;;;;16.45;8.93;;;;;;;-4.72;71.35;96103.09;5105750;28;20049;-76
2022/01/24 01:01:59;;;;;;;16.33;8.52;;;;;;;-4.69;70.90;96102.94;5105324;28;20394;-76
2022/01/24 01:04:32;;;;;;;14.80;8.20;;;;;;;-4.74;71.09;96105.75;5107123;28;20517;-77
2022/01/24 01:07:04;;;;;;;13.02;8.30;;;;;;;-4.78;71.40;96100.72;5105596;28;20050;-77
2022/01/24 01:20:28;;;;;;;20.73;8.68;;;;;;;-4.62;71.13;96104.41;5105879;28;20089;-78
2022/01/24 01:22:54;;;;;;;16.90;9.23;;;;;;;-4.60;71.11;96101.72;5104935;28;20485;-77
2022/01/24 01:25:19;;;;;;;16.95;8.63;;;;;;;-4.50;70.76;96097.75;5106714;28;20030;-77
2022/01/24 01:27:47;;;;;;;19.88;8.50;;;;;;;-4.55;70.54;96098.88;5088271;28;20028;-77
2022/01/24 01:30:20;;;;;;;19.88;9.35;;;;;;;-4.57;70.78;96101.56;5105501;28;20028;-77
2022/01/24 01:33:03;;;;;;;;;;;;;;;-4.53;70.71;96104.91;5108165;28;20031;-76
2022/01/24 01:35:44;;;;;;;13.32;7.32;;;;;;;-4.56;70.87;96098.03;5113990;28;19911;-76
2022/01/24 01:57:11;;;;;;;18.65;8.27;;;;;;;-4.56;70.29;96095.41;5106224;28;20031;-76
2022/01/24 01:59:37;;;;;;;18.50;9.18;;;;;;;-4.53;69.77;96099.69;5105239;28;20063;-77
2022/01/24 02:02:02;;;;;;;16.20;8.35;;;;;;;-4.59;69.82;96093.78;5087698;28;20081;-77
2022/01/24 02:04:28;;;;;;;15.75;7.88;;;;;;;-4.60;70.23;96101.72;5106727;28;20024;-77
2022/01/24 02:06:53;;;;;;;18.05;9.25;;;;;;;-4.73;70.32;96104.88;5104936;28;20023;-77
2022/01/24 02:09:19;;;;;;;20.92;10.13;;;;;;;-4.72;70.31;96105.69;5106596;28;20031;-77
2022/01/24 02:11:44;;;;;;;20.27;10.07;;;;;;;-4.67;70.28;96106.34;5071154;28;20072;-77
2022/01/24 02:14:15;;;;;;;18.30;9.95;;;;;;;-4.67;70.30;96106.34;5104449;28;20092;-76
2022/01/24 02:16:52;;;;;;;15.93;8.70;;;;;;;-4.65;70.50;96108.91;5106494;28;20543;-76
2022/01/24 02:24:40;;;;;;;17.45;9.10;;;;;;;-4.56;70.11;96107.66;5106363;28;20032;-77
2022/01/24 02:27:07;;;;;;;17.45;8.85;;;;;;;-4.55;70.01;96104.97;5105958;28;20024;-78
2022/01/24 02:32:16;;;;;;;17.92;9.63;;;;;;;-4.59;69.99;96112.13;5106172;28;20497;-77
2022/01/24 02:34:45;;;;;;;18.67;9.27;;;;;;;-4.55;69.88;96114.59;5106362;28;20023;-77
2022/01/24 02:37:12;;;;;;;19.77;9.98;;;;;;;-4.62;70.05;96109.63;5106115;28;20032;-77
2022/01/24 02:50:31;;;;;;;16.08;9.48;;;;;;;-4.72;69.45;96109.19;5090389;28;20100;-77
2022/01/24 02:52:56;;;;;;;19.45;10.35;;;;;;;-4.77;69.19;96105.06;5090690;28;20027;-79
2022/01/24 02:55:22;;;;;;;18.85;10.25;;;;;;;-4.77;69.37;96111.13;5091125;28;20452;-76
2022/01/24 02:57:47;;;;;;;22.10;10.27;;;;;;;-4.79;69.46;96119.97;5091117;28;20028;-77
2022/01/24 03:00:13;;;;;;;21.85;10.15;;;;;;;-4.86;69.67;96122.84;5108015;28;20023;-77
2022/01/24 03:02:39;;;;;;;18.75;9.57;;;;;;;-4.79;69.18;96117.34;5107812;28;20113;-77
2022/01/24 03:05:04;;;;;;;19.63;10.23;;;;;;;-4.89;69.47;96123.00;5091191;28;20028;-76
2022/01/24 03:07:31;;;;;;;15.68;9.20;;;;;;;-4.88;69.58;96124.69;5090559;28;20023;-77
2022/01/24 03:09:57;;;;;;;17.40;9.35;;;;;;;-4.99;69.96;96137.38;5109546;28;20069;-77
2022/01/24 03:15:18;;;;;;;17.58;8.43;;;;;;;-4.99;69.62;96146.06;5040644;28;20042;-78
2022/01/24 03:17:44;;;;;;;17.52;9.15;;;;;;;-4.94;69.55;96139.78;5109315;28;20028;-77
2022/01/24 03:20:09;;;;;;;16.80;9.93;;;;;;;-4.98;69.93;96144.31;5107508;28;20073;-78
2022/01/24 03:22:35;;;;;;;17.65;9.13;;;;;;;-5.03;70.60;96152.31;5109140;28;20026;-77
2022/01/24 03:25:00;;;;;;;17.38;9.65;;;;;;;-5.04;70.14;96155.00;5108854;28;20421;-77
2022/01/24 03:27:26;;;;;;;24.48;11.15;;;;;;;-5.02;70.21;96158.41;5108783;28;20028;-78
2022/01/24 03:29:51;;;;;;;29.83;13.88;;;;;;;-4.97;69.77;96161.72;5107585;28;20031;-77
2022/01/24 03:32:16;;;;;;;38.72;15.73;;;;;;;-5.01;70.34;96160.97;5108901;28;20028;-77
2022/01/24 03:34:43;;;;;;;43.38;17.67;;;;;;;-5.00;70.08;96167.06;5107750;28;20076;-79
2022/01/24 03:37:08;;;;;;;32.40;16.95;;;;;;;-5.02;69.73;96163.66;5108472;28;20217;-76
2022/01/24 03:39:34;;;;;;;30.80;14.50;;;;;;;-4.96;69.73;96164.25;5108679;28;20049;-76
2022/01/24 03:42:00;;;;;;;30.85;15.02;;;;;;;-4.93;70.29;96172.91;5107274;28;20027;-77
2022/01/24 03:44:27;;;;;;;23.98;12.05;;;;;;;-4.95;70.42;96172.97;5090410;28;20479;-77
2022/01/24 03:52:07;;;;;;;24.95;11.70;;;;;;;-4.96;70.32;96190.44;5107735;28;20038;-77
2022/01/24 03:54:33;;;;;;;22.83;11.93;;;;;;;-4.92;70.51;96183.31;5108128;28;20020;-77
2022/01/24 03:56:58;;;;;;;24.80;11.88;;;;;;;-4.95;70.95;96191.28;5108819;28;20486;-77
2022/01/24 03:59:24;;;;;;;24.15;11.85;;;;;;;-4.97;70.76;96188.75;5089842;28;20023;-78
2022/01/24 04:01:49;;;;;;;30.33;15.43;;;;;;;-4.97;71.20;96200.97;5089964;28;20023;-78
2022/01/24 04:04:14;;;;;;;40.33;18.75;;;;;;;-4.94;70.57;96192.97;5089387;28;20031;-76
2022/01/24 04:06:40;;;;;;;25.42;14.20;;;;;;;-4.92;71.02;96193.78;5106878;28;20023;-77
2022/01/24 04:09:06;;;;;;;21.13;11.77;;;;;;;-4.89;70.83;96190.16;5106858;28;20035;-77
2022/01/24 04:11:36;;;;;;;22.75;12.43;;;;;;;-4.86;70.02;96190.91;5089661;28;20027;-77
2022/01/24 04:14:21;;;;;;;21.73;11.27;;;;;;;-4.85;70.19;96203.06;5108386;28;20437;-78
2022/01/24 04:16:53;;;;;;;21.83;11.13;;;;;;;-4.81;69.80;96210.78;5107578;28;20031;-78
2022/01/24 04:21:19;;;;;;;19.15;10.80;;;;;;;-4.82;68.39;96211.72;5108076;28;20036;-76
2022/01/24 04:22:17;;;;;;;18.50;9.88;;;;;;;-4.77;68.12;96222.84;5106896;28;20032;-78
2022/01/24 04:24:44;;;;;;;18.17;9.40;;;;;;;-4.89;69.00;96218.97;5089266;28;20027;-78
2022/01/24 04:27:09;;;;;;;14.13;8.70;;;;;;;-4.85;68.21;96215.28;5090041;28;20092;-76
2022/01/24 04:29:35;;;;;;;21.75;9.65;;;;;;;-4.84;67.80;96225.69;5089368;28;20734;-77
2022/01/24 04:32:01;;;;;;;21.77;10.70;;;;;;;-4.81;67.53;96223.88;5089893;28;20411;-77
2022/01/24 04:34:26;;;;;;;21.70;10.40;;;;;;;-4.98;68.56;96234.13;5072580;28;20452;-78
2022/01/24 04:36:51;;;;;;;21.30;10.57;;;;;;;-5.05;68.39;96237.03;5108020;28;20024;-77
2022/01/24 04:39:17;;;;;;;14.85;9.18;;;;;;;-4.97;67.34;96234.97;5107387;28;20038;-78
2022/01/24 04:41:46;;;;;;;20.42;9.80;;;;;;;-4.98;66.39;96244.59;5106048;28;20038;-75
2022/01/24 04:47:02;;;;;;;;;;;;;;;-5.20;64.22;96255.03;5106116;28;20075;-77
2022/01/24 04:54:44;;;;;;;11.00;6.00;;;;;;;-5.43;62.56;96248.09;5106245;28;20114;-77
2022/01/24 04:57:11;;;;;;;12.80;5.35;;;;;;;-5.46;62.38;96251.66;5089139;28;20031;-77
2022/01/24 04:59:37;;;;;;;9.07;5.10;;;;;;;-5.44;62.14;96252.47;5106971;28;20050;-78
2022/01/24 05:02:03;;;;;;;11.77;5.13;;;;;;;-5.50;61.23;96257.94;5089303;28;20407;-76
2022/01/24 05:04:29;;;;;;;9.10;4.65;;;;;;;-5.58;60.85;96261.66;5106126;28;20110;-77
2022/01/24 05:06:55;;;;;;;11.23;5.00;;;;;;;-5.54;60.70;96265.03;5089065;28;20111;-77
2022/01/24 05:09:21;;;;;;;7.30;4.28;;;;;;;-5.53;60.62;96263.28;5106894;28;20032;-78
2022/01/24 05:11:55;;;;;;;8.98;5.10;;;;;;;-5.46;60.10;96262.13;5106003;28;20447;-77
2022/01/24 05:25:17;;;;;;;8.73;4.97;;;;;;;-5.53;59.53;96297.25;5105701;28;20038;-77
2022/01/24 05:27:42;;;;;;;7.90;4.47;;;;;;;-5.52;59.59;96296.34;5105829;28;20034;-79
2022/01/24 05:30:08;;;;;;;10.63;4.75;;;;;;;-5.52;59.79;96297.19;5088169;28;20019;-77
2022/01/24 05:32:34;;;;;;;7.13;4.20;;;;;;;-5.56;59.88;96306.03;5107546;28;20019;-76
2022/01/24 05:34:59;;;;;;;7.50;5.10;;;;;;;-5.52;60.03;96315.50;5106445;28;20027;-77
2022/01/24 05:37:25;;;;;;;9.50;5.63;;;;;;;-5.43;60.35;96316.91;5105528;28;20486;-77
2022/01/24 05:39:50;;;;;;;9.77;5.43;;;;;;;-5.36;60.34;96322.78;5106729;28;20023;-76
2022/01/24 05:42:18;;;;;;;13.05;5.82;;;;;;;-5.35;60.25;96325.31;5088067;28;20036;-76
2022/01/24 05:44:44;;;;;;;11.23;5.55;;;;;;;-5.37;60.37;96332.38;5089296;28;20032;-77
2022/01/24 05:47:09;;;;;;;9.75;4.88;;;;;;;-5.43;60.06;96327.38;5109036;28;20062;-78
2022/01/24 05:49:35;;;;;;;9.57;4.65;;;;;;;-5.35;60.13;96334.94;5092752;28;20027;-77
2022/01/24 05:52:00;;;;;;;10.63;4.80;;;;;;;-5.36;59.83;96336.72;5091026;28;20027;-76
2022/01/24 05:54:26;;;;;;;11.23;5.55;;;;;;;-5.34;60.21;96341.88;5089250;28;20023;-77
2022/01/24 05:56:51;;;;;;;8.10;4.82;;;;;;;-5.38;61.14;96346.38;5104947;28;20026;-78
2022/01/24 05:59:16;;;;;;;8.93;4.75;;;;;;;-5.41;60.92;96356.94;5105190;28;20035;-77
2022/01/24 06:01:42;;;;;;;8.25;4.22;;;;;;;-5.34;60.25;96358.44;5106329;28;20032;-78
2022/01/24 06:04:10;;;;;;;7.78;5.05;;;;;;;-5.30;60.56;96363.56;5104642;28;20019;-77
2022/01/24 06:06:35;;;;;;;9.07;4.85;;;;;;;-5.35;61.08;96369.78;5106607;28;20328;-75
2022/01/24 06:09:00;;;;;;;10.23;5.45;;;;;;;-5.41;61.65;96375.25;5105971;28;20020;-76
2022/01/24 06:11:27;;;;;;;10.38;5.68;;;;;;;-5.38;62.01;96382.09;5106012;28;20027;-75
2022/01/24 06:13:52;;;;;;;9.02;6.22;;;;;;;-5.31;62.03;96393.22;5106038;28;20528;-76
2022/01/24 06:16:18;;;;;;;14.50;6.65;;;;;;;-5.43;62.84;96392.72;5087677;28;20032;-77
2022/01/24 06:18:43;;;;;;;12.65;7.05;;;;;;;-5.36;63.02;96383.78;5104707;28;20023;-77
2022/01/24 06:21:09;;;;;;;13.32;6.85;;;;;;;-5.31;63.85;96393.22;5087688;28;20024;-76
2022/01/24 06:23:34;;;;;;;11.98;6.95;;;;;;;-5.23;63.86;96394.66;5106385;28;20024;-77
2022/01/24 06:25:59;;;;;;;11.77;7.05;;;;;;;-5.16;62.95;96395.28;5104437;28;20028;-77
2022/01/24 06:28:25;;;;;;;12.13;7.30;;;;;;;-5.10;62.04;96402.91;5091402;28;20027;-77
2022/01/24 06:30:50;;;;;;;12.23;7.03;;;;;;;-5.07;61.96;96395.84;5108488;28;20031;-76
2022/01/24 06:33:16;;;;;;;10.57;6.70;;;;;;;-5.08;62.63;96400.22;5109669;28;20034;-76
2022/01/24 06:35:41;;;;;;;14.52;7.78;;;;;;;-5.02;62.07;96414.84;5108590;28;20046;-78
2022/01/24 06:38:07;;;;;;;13.35;7.47;;;;;;;-5.02;62.25;96405.25;5108370;28;20051;-76
2022/01/24 06:40:32;;;;;;;10.65;6.38;;;;;;;-4.97;62.29;96410.28;5108070;28;20034;-77
2022/01/24 06:42:58;;;;;;;11.63;6.35;;;;;;;-4.92;62.54;96410.97;5109504;28;20100;-77
2022/01/24 06:45:23;;;;;;;13.75;7.15;;;;;;;-4.82;62.34;96413.25;5109377;28;20449;-77
2022/01/24 06:47:49;;;;;;;12.18;6.72;;;;;;;-4.80;62.92;96409.66;5090984;28;20080;-77
2022/01/24 06:50:14;;;;;;;12.55;6.80;;;;;;;-4.77;62.56;96417.38;5108171;28;20024;-76
2022/01/24 06:52:39;;;;;;;14.05;8.00;;;;;;;-4.73;61.80;96420.75;5108356;28;20268;-78
2022/01/24 06:55:05;;;;;;;12.70;7.47;;;;;;;-4.72;61.84;96422.44;5091239;28;20032;-77
2022/01/24 06:57:31;;;;;;;11.50;6.85;;;;;;;-4.72;62.60;96417.22;5107766;28;20032;-78
2022/01/24 06:59:56;;;;;;;14.07;7.82;;;;;;;-4.63;62.82;96421.25;5107818;28;20028;-77
2022/01/24 07:02:22;;;;;;;16.85;9.10;;;;;;;-4.60;62.99;96427.25;5073783;28;20019;-77
2022/01/24 07:04:47;;;;;;;13.65;7.80;;;;;;;-4.57;62.58;96425.38;5073779;28;20034;-78
2022/01/24 07:07:13;;;;;;;14.73;8.35;;;;;;;-4.48;61.93;96435.50;5108052;28;20023;-77
2022/01/24 07:09:39;;;;;;;17.70;9.52;;;;;;;-4.44;61.26;96434.50;5107544;28;20028;-77
2022/01/24 07:12:04;;;;;;;15.63;7.55;;;;;;;-4.34;59.08;96435.81;5108421;28;20027;-78
2022/01/24 07:14:30;;;;;;;13.52;6.93;;;;;;;-4.25;58.90;96432.00;5090712;28;20454;-76
2022/01/24 07:19:22;;;;;;;14.20;6.47;;;;;;;-4.10;58.11;96434.94;5107416;28;20036;-76
2022/01/24 07:21:47;;;;;;;11.00;5.55;;;;;;;-4.12;57.53;96445.47;5108930;28;20450;-77
2022/01/24 07:24:13;;;;;;;10.00;5.63;;;;;;;-4.11;58.31;96443.72;5073909;28;20024;-77
2022/01/24 07:26:38;;;;;;;9.68;5.55;;;;;;;-4.04;56.87;96449.53;5107058;28;20026;-78
2022/01/24 07:29:03;;;;;;;11.05;5.10;;;;;;;-3.99;57.14;96460.69;5107710;28;20028;-76
2022/01/24 07:31:29;;;;;;;10.50;6.00;;;;;;;-3.92;57.59;96454.31;5090388;28;20028;-76
2022/01/24 07:33:55;;;;;;;12.90;6.65;;;;;;;-3.90;59.11;96462.09;5109189;28;20024;-77
2022/01/24 07:36:22;;;;;;;11.57;6.40;;;;;;;-3.88;59.55;96471.59;5108695;28;20489;-77
2022/01/24 07:38:47;;;;;;;11.90;6.25;;;;;;;-3.67;57.46;96474.25;5106357;28;20131;-78
2022/01/24 07:41:15;;;;;;;10.90;6.15;;;;;;;-3.55;57.42;96470.28;5107224;28;20028;-77
2022/01/24 07:43:40;;;;;;;9.00;5.43;;;;;;;-3.63;57.49;96475.81;5090313;28;20023;-77
2022/01/24 07:46:05;;;;;;;12.88;5.95;;;;;;;-3.61;57.24;96478.41;5090083;28;20054;-78
2022/01/24 07:48:31;;;;;;;14.48;6.65;;;;;;;-3.58;57.03;96482.66;5108055;27;20094;-77
2022/01/24 07:50:56;;;;;;;11.57;5.57;;;;;;;-3.67;57.29;96484.75;5107318;28;20478;-79
2022/01/24 07:53:23;;;;;;;10.95;7.03;;;;;;;-3.74;57.66;96489.38;5106866;28;20020;-78
2022/01/24 07:55:49;;;;;;;14.00;7.82;;;;;;;-3.75;59.16;96503.41;5090957;28;20472;-78
2022/01/24 07:58:14;;;;;;;13.35;7.72;;;;;;;-3.83;60.12;96499.38;5090061;28;20486;-78
2022/01/24 08:00:40;;;;;;;13.57;8.18;;;;;;;-3.83;61.14;96505.50;5106474;28;20438;-77
2022/01/24 08:03:05;;;;;;;17.08;8.60;;;;;;;-3.77;60.04;96499.16;5090000;28;20049;-76
2022/01/24 08:05:30;;;;;;;16.27;9.38;;;;;;;-3.79;60.92;96507.06;5089380;28;20058;-78
2022/01/24 08:07:56;;;;;;;21.58;10.23;;;;;;;-3.74;61.00;96509.53;5106677;28;20141;-78
2022/01/24 08:10:21;;;;;;;20.40;11.52;;;;;;;-3.66;61.08;96510.03;5089792;28;20059;-77
2022/01/24 08:12:47;;;;;;;31.80;13.00;;;;;;;-3.62;60.14;96522.13;5089606;28;20024;-76
2022/01/24 08:15:14;;;;;;;24.67;12.88;;;;;;;-3.58;60.75;96524.63;5106843;28;20035;-77
2022/01/24 08:17:41;;;;;;;23.02;11.60;;;;;;;-3.56;59.94;96525.44;5106616;28;20028;-78
2022/01/24 08:20:07;;;;;;;22.00;11.52;;;;;;;-3.48;59.35;96520.69;5106443;28;20024;-78
2022/01/24 08:22:33;;;;;;;25.23;12.27;;;;;;;-3.38;59.99;96527.28;5106059;28;20031;-77
2022/01/24 08:25:03;;;;;;;18.73;10.18;;;;;;;-3.42;58.76;96528.34;5107473;28;20034;-77
2022/01/24 08:27:28;;;;;;;20.90;8.95;;;;;;;-3.37;58.20;96526.34;5106233;28;20439;-77
2022/01/24 08:29:53;;;;;;;15.10;8.60;;;;;;;-3.33;58.26;96534.09;5089433;28;20136;-76
2022/01/24 08:32:19;;;;;;;13.75;7.07;;;;;;;-3.44;58.24;96538.03;5107711;28;20030;-78
2022/01/24 08:34:45;;;;;;;14.32;7.95;;;;;;;-3.54;59.48;96541.94;5105869;28;20031;-77
2022/01/24 08:37:11;;;;;;;18.63;9.02;;;;;;;-3.52;60.56;96542.75;5107511;28;20030;-76
2022/01/24 08:39:37;;;;;;;17.73;10.05;;;;;;;-3.49;60.46;96543.47;5089291;28;20042;-76
2022/01/24 08:42:14;;;;;;;19.85;10.02;;;;;;;-3.48;60.28;96544.31;5106135;28;20023;-78
2022/01/24 08:47:23;;;;;;;18.50;10.25;;;;;;;-3.44;60.43;96545.91;5106268;28;20497;-77
2022/01/24 08:49:49;;;;;;;22.20;10.63;;;;;;;-3.49;59.33;96534.75;5104959;28;20505;-77
2022/01/24 08:52:14;;;;;;;43.42;26.77;;;;;;;-3.50;60.25;96547.00;5088666;28;20089;-77
2022/01/24 08:54:40;;;;;;;23.77;12.82;;;;;;;-3.46;60.08;96547.72;5107188;28;20024;-77
2022/01/24 08:57:05;;;;;;;21.60;11.15;;;;;;;-3.51;60.43;96544.44;5088410;28;20031;-77
2022/01/24 08:59:32;;;;;;;24.33;12.30;;;;;;;-3.50;60.42;96548.78;5107122;28;20120;-78
2022/01/24 09:01:57;;;;;;;27.42;13.55;;;;;;;-3.51;60.52;96554.94;5071478;28;20103;-78
2022/01/24 09:04:23;;;;;;;26.42;13.30;;;;;;;-3.47;60.22;96557.34;5088874;28;20527;-77
2022/01/24 09:06:48;;;;;;;27.25;14.15;;;;;;;-3.44;60.30;96559.03;5105626;28;20023;-76
2022/01/24 09:09:15;;;;;;;24.73;13.57;;;;;;;-3.41;60.86;96558.03;5105484;28;20030;-78
2022/01/24 09:11:40;;;;;;;33.35;16.33;;;;;;;-3.36;60.96;96562.19;5105620;28;20061;-77
2022/01/24 09:14:06;;;;;;;29.52;14.90;;;;;;;-3.24;60.23;96559.97;5106627;28;20019;-77
2022/01/24 09:16:32;;;;;;;30.67;15.52;;;;;;;-3.30;59.35;96555.81;5071796;28;20190;-77
2022/01/24 09:18:58;;;;;;;25.25;14.98;;;;;;;-3.26;59.52;96561.81;5104767;28;20567;-77
2022/01/24 09:21:23;;;;;;;25.08;15.05;;;;;;;-3.17;59.65;96563.19;5106972;28;20513;-76
2022/01/24 09:23:49;;;;;;;31.25;15.60;;;;;;;-3.20;59.95;96564.19;5071794;28;20062;-77
2022/01/24 09:26:14;;;;;;;25.75;13.57;;;;;;;-3.10;59.21;96567.28;5088350;28;20105;-80
2022/01/24 09:28:40;;;;;;;24.85;13.20;;;;;;;-2.99;59.04;96566.81;5088577;28;20031;-77
2022/01/24 09:31:05;;;;;;;28.42;13.38;;;;;;;-3.01;58.73;96566.00;5105565;28;20093;-78
2022/01/24 09:33:31;;;;;;;27.60;12.65;;;;;;;-3.13;58.64;96572.66;5071515;28;20032;-82
2022/01/24 09:35:59;;;;;;;22.45;11.43;;;;;;;-3.07;59.29;96567.13;5088211;28;20451;-79
2022/01/24 09:38:29;;;;;;;21.73;11.77;;;;;;;-2.97;58.33;96570.22;5105801;28;20024;-78
2022/01/24 09:40:56;;;;;;;22.95;10.70;;;;;;;-2.86;57.75;96569.78;5088642;28;20036;-78
2022/01/24 09:43:21;;;;;;;20.75;11.82;;;;;;;-2.88;57.80;96561.97;5105095;28;20027;-79
2022/01/24 09:45:46;;;;;;;21.92;12.02;;;;;;;-2.77;57.91;96561.50;5104977;28;20043;-76
2022/01/24 09:48:12;;;;;;;21.95;11.95;;;;;;;-2.69;58.31;96563.78;5071100;28;20046;-82
2022/01/24 09:50:37;;;;;;;22.85;12.00;;;;;;;-2.49;57.70;96554.19;5071707;28;20482;-79
2022/01/24 09:53:03;;;;;;;21.25;11.43;;;;;;;-2.33;57.15;96548.22;5076578;28;20043;-74
2022/01/24 09:55:29;;;;;;;20.35;10.43;;;;;;;-2.08;55.98;96549.75;5110995;28;20035;-79
2022/01/24 09:57:55;;;;;;;21.42;10.35;;;;;;;-1.99;55.21;96549.31;5106100;28;20028;-78
2022/01/24 10:00:25;;;;;;;17.33;8.95;;;;;;;-1.93;54.44;96554.28;5104985;28;20110;-78
2022/01/24 10:02:50;;;;;;;15.68;8.32;;;;;;;-1.69;54.22;96554.03;5107986;28;20022;-77
2022/01/24 10:05:24;;;;;;;13.05;7.75;;;;;;;-1.52;53.00;96547.13;5110414;28;20028;-78
2022/01/24 10:07:53;;;;;;;12.02;6.57;;;;;;;-1.26;51.89;96547.63;5076676;28;20450;-79
2022/01/24 10:10:50;;;;;;;13.05;6.70;;;;;;;-1.23;50.86;96544.84;5108844;28;20120;-77
2022/01/24 10:16:37;;;;;;;10.07;5.97;;;;;;;-1.60;47.73;96530.84;5110360;28;20515;-79
2022/01/24 10:19:07;;;;;;;12.65;6.78;;;;;;;-1.45;48.42;96530.09;5109100;28;20031;-78
2022/01/24 10:21:55;;;;;;;10.30;5.85;;;;;;;-1.23;48.26;96528.19;5110400;28;20020;-80
2022/01/24 10:24:26;;;;;;;10.75;6.07;;;;;;;-1.40;47.31;96537.75;5110113;28;20028;-77
2022/01/24 10:27:24;;;;;;;11.05;6.65;;;;;;;-1.12;49.40;96529.34;5111081;28;20032;-78
2022/01/24 10:29:58;;;;;;;11.80;6.00;;;;;;;-0.85;49.41;96521.91;5066112;28;20050;-77
2022/01/24 10:32:30;;;;;;;12.23;6.05;;;;;;;-0.67;48.88;96522.72;5109185;28;20051;-80
2022/01/24 10:34:56;;;;;;;11.60;6.83;;;;;;;-0.63;47.84;96525.13;5113103;28;20015;-78
2022/01/24 10:37:22;;;;;;;12.65;7.40;;;;;;;-0.38;47.91;96517.69;5102436;28;20272;-78
2022/01/24 10:40:05;;;;;;;14.00;7.80;;;;;;;-0.29;47.93;96526.91;5121698;28;20497;-78
2022/01/24 10:43:15;;;;;;;14.63;7.47;;;;;;;-0.33;47.97;96520.09;5104781;28;20430;-79
2022/01/24 10:45:18;;;;;;;14.02;8.00;;;;;;;-0.43;47.69;96517.09;5103907;28;20031;-79
2022/01/24 10:47:46;;;;;;;14.25;6.25;;;;;;;-0.43;45.54;96530.25;5093252;28;20023;-80
2022/01/24 10:50:28;;;;;;;9.93;5.95;;;;;;;-0.72;46.04;96530.88;5092205;28;20020;-78
2022/01/24 10:52:55;;;;;;;11.43;6.60;;;;;;;-0.85;46.26;96533.28;5108850;28;20114;-78
2022/01/24 10:55:24;;;;;;;10.88;5.95;;;;;;;-1.00;46.19;96543.66;5074264;28;20031;-80
2022/01/24 10:57:56;;;;;;;9.95;5.80;;;;;;;-1.55;48.30;96537.59;5108473;28;20031;-80
2022/01/24 11:00:26;;;;;;;8.85;5.88;;;;;;;-1.50;49.33;96540.00;5092312;28;20413;-79
2022/01/24 11:02:53;;;;;;;11.38;6.50;;;;;;;-1.53;50.21;96537.53;5108036;28;20024;-78
2022/01/24 11:05:21;;;;;;;12.48;6.13;;;;;;;-1.45;50.29;96540.63;5108783;28;20104;-80
2022/01/24 11:07:49;;;;;;;11.45;6.38;;;;;;;-1.40;48.95;96533.34;5109465;28;20038;-80
2022/01/24 11:10:14;;;;;;;8.82;4.82;;;;;;;-1.44;48.70;96534.44;5109779;28;20031;-82
2022/01/24 11:12:40;;;;;;;7.90;5.18;;;;;;;-1.40;48.56;96532.50;5108803;28;20054;-77
2022/01/24 11:15:06;;;;;;;10.50;5.45;;;;;;;-1.68;48.01;96532.09;5108932;28;20015;-80
2022/01/24 11:17:31;;;;;;;8.77;5.22;;;;;;;-1.47;47.45;96537.22;5109529;28;20059;-77
2022/01/24 11:20:01;;;;;;;7.30;4.93;;;;;;;-1.31;47.12;96537.31;5073952;28;20493;-77
2022/01/24 11:22:28;;;;;;;8.27;5.30;;;;;;;-1.56;46.15;96528.00;5091506;28;20114;-76
2022/01/24 11:25:04;;;;;;;8.60;4.97;;;;;;;-1.34;45.08;96531.34;5091410;28;20095;-78
2022/01/24 11:27:30;;;;;;;7.30;4.60;;;;;;;-1.38;44.40;96536.78;5092406;28;20023;-80
2022/01/24 11:29:59;;;;;;;8.57;4.80;;;;;;;-1.29;44.14;96537.25;5108212;28;20505;-80
2022/01/24 11:32:28;;;;;;;8.15;4.97;;;;;;;-1.36;44.15;96526.16;5092696;28;20035;-77
2022/01/24 11:34:54;;;;;;;7.90;4.88;;;;;;;-1.40;44.34;96533.34;5100880;28;20054;-78
2022/01/24 11:37:40;;;;;;;10.32;4.88;;;;;;;-1.67;44.06;96540.81;5100972;28;20083;-76
2022/01/24 11:40:17;;;;;;;7.80;4.47;;;;;;;-1.76;44.99;96526.34;5117668;28;20055;-81
2022/01/24 11:42:45;;;;;;;10.75;6.28;;;;;;;-1.76;47.88;96534.22;5112315;28;20107;-77
2022/01/24 11:45:16;;;;;;;10.70;5.68;;;;;;;-1.80;48.86;96532.66;5107449;28;20027;-80
2022/01/24 11:47:42;;;;;;;10.13;5.88;;;;;;;-1.79;50.27;96537.84;5090856;28;20470;-79
2022/01/24 11:50:23;;;;;;;11.70;5.97;;;;;;;-1.68;49.96;96542.59;5107475;28;20031;-77
2022/01/24 11:52:49;;;;;;;12.10;6.15;;;;;;;-1.54;48.50;96538.44;5108679;28;20494;-77
2022/01/24 11:55:17;;;;;;;9.48;5.30;;;;;;;-1.50;49.27;96540.00;5090207;28;20031;-78
2022/01/24 11:57:47;;;;;;;9.82;5.80;;;;;;;-1.33;49.04;96541.81;5106874;28;20023;-75
2022/01/24 12:00:15;;;;;;;10.38;5.70;;;;;;;-1.22;48.56;96538.63;5090451;28;20405;-77
2022/01/24 12:02:52;;;;;;;10.95;6.22;;;;;;;-1.30;48.19;96543.41;5106903;28;20030;-75
2022/01/24 12:05:22;;;;;;;10.45;5.97;;;;;;;-1.19;48.75;96545.53;5091397;28;20036;-77
2022/01/24 12:07:57;;;;;;;10.50;5.82;;;;;;;-1.09;47.63;96545.91;5106296;28;20023;-77
2022/01/24 12:10:23;;;;;;;16.20;7.18;;;;;;;-1.27;46.34;96553.81;5107044;28;20027;-79
2022/01/24 12:12:55;;;;;;;8.43;5.43;;;;;;;-1.36;46.50;96552.50;5107774;28;20034;-83
2022/01/24 12:15:36;;;;;;;10.13;5.53;;;;;;;-1.56;46.06;96540.28;5106637;28;20465;-77
2022/01/24 12:18:02;;;;;;;10.05;5.22;;;;;;;-1.70;47.27;96547.09;5107802;28;20031;-75
2022/01/24 12:20:30;;;;;;;8.55;5.03;;;;;;;-1.81;47.27;96546.75;5106480;28;20119;-78
2022/01/24 12:23:00;;;;;;;9.52;5.10;;;;;;;-1.80;47.71;96548.44;5107923;28;20081;-77
2022/01/24 12:25:54;;;;;;;8.60;5.30;;;;;;;-1.63;46.54;96545.84;5089646;28;20057;-78
2022/01/24 12:28:24;;;;;;;10.45;4.50;;;;;;;-1.52;46.46;96552.38;5108055;28;20034;-76
2022/01/24 12:31:17;;;;;;;9.63;4.97;;;;;;;-1.28;46.25;96544.22;5072933;28;20405;-78
2022/01/24 12:33:43;;;;;;;6.60;4.72;;;;;;;-1.27;46.47;96552.03;5093447;28;20092;-79
2022/01/24 12:36:14;;;;;;;8.75;5.32;;;;;;;-1.41;45.67;96555.34;5107979;28;20467;-77
2022/01/24 12:38:57;;;;;;;7.10;4.32;;;;;;;-1.60;45.28;96557.16;5106360;28;20359;-78
2022/01/24 12:41:31;;;;;;;8.57;5.05;;;;;;;-1.63;46.73;96555.53;5106405;28;20055;-77
2022/01/24 12:46:26;;;;;;;11.38;6.85;;;;;;;-1.93;51.39;96564.78;5106094;28;20048;-78
2022/01/24 12:48:57;;;;;;;10.02;5.78;;;;;;;-1.88;52.00;96559.31;5072446;28;20077;-77
2022/01/24 12:51:25;;;;;;;10.82;6.10;;;;;;;-2.06;51.29;96556.63;5089806;28;20110;-78
2022/01/24 12:53:51;;;;;;;12.93;6.22;;;;;;;-2.12;51.62;96560.41;5072331;28;20478;-78
2022/01/24 12:56:18;;;;;;;11.45;6.68;;;;;;;-2.37;51.88;96555.41;5106022;28;20035;-78
2022/01/24 12:58:48;;;;;;;11.43;6.57;;;;;;;-2.48;52.01;96563.75;5089170;28;20031;-78
2022/01/24 13:01:20;;;;;;;14.18;7.22;;;;;;;-2.45;51.16;96554.91;5105412;28;20119;-78
2022/01/24 13:03:50;;;;;;;12.00;6.32;;;;;;;-2.18;52.20;96555.44;5106028;28;20040;-77
2022/01/24 13:06:16;;;;;;;10.68;6.35;;;;;;;-1.82;50.36;96563.44;5105866;28;20038;-78
2022/01/24 13:09:00;;;;;;;12.30;7.57;;;;;;;-1.64;50.43;96566.97;5089031;28;20476;-76
2022/01/24 13:11:29;;;;;;;13.00;7.38;;;;;;;-1.46;48.30;96562.59;5107238;28;20030;-78
2022/01/24 13:14:02;;;;;;;12.60;6.30;;;;;;;-1.44;48.72;96562.53;5106558;28;20024;-77